Lockport, NY

7:28 PM EDT on April 27, 2015 (GMT -0400)
Niagara Falls International | | Change Station
CLOSE
Current Station
Airport
Location: Niagara Falls,
Elevation: 584 ft
Nearby Weather Stations

Elev 584 ft 43.11 °N, 78.94 °W | Updated 35 minutes ago

Overcast
Overcast
48 °F
Feels Like 48 °F
N
8
Wind Variable Wind from NW

Today
High -- | Low -- °F
--% Chance of Precip.
Yesterday
High -- | Low -- °F
Precip. -- in
6:14 AM 8:11 PM
Waxing Gibbous, 68% visible
Pressure 29.92 in
Visibility 10.0 miles
Clouds Mostly Cloudy 4700 ft
Mostly Cloudy 6500 ft
Dew Point 39 °F
Humidity 71%
Rainfall 0.03 in
Snow Depth Not available.
UV 0 out of 12
Pollen 8.60 out of 12
Air Quality Not available.
Flu Activity Widespread
METAR KIAG 272253Z 31007KT 10SM -RA BKN047 BKN065 09/04 A2992

More Conditions Fewer Conditions

Pressure 29.92 in
Visibility 10.0 miles
Clouds Mostly Cloudy 4700 ft
Mostly Cloudy 6500 ft
Dew Point 39 °F
Humidity 71%
Rainfall 0.03 in
Snow Depth Not available.
UV 0 out of 12
Pollen 8.60 out of 12
Air Quality Not available.
Flu Activity Widespread
METAR KIAG 272253Z 31007KT 10SM -RA BKN047 BKN065 09/04 A2992

More Conditions Fewer Conditions

10-Day Weather Forecast

Almanac

Astronomy

Apr. 27, 2015 Rise Set
Actual Time
Civil Twilight
Nautical Twilight
Astronomical Twilight
Moon
Length of Visible Light
Length of Day
Tomorrow will be .
, % of the Moon is Illuminated

Today's Extremes

State Highs State Lows

Community

WunderPhotos

Upload Photos

1,817,472 photos uploaded!

WunderBlogs® & News

Nearby

Air Quality

  Air Quality AQ Index Pollutant
Not available.

Snow Depth

Station Depth Elevation

Earthquake Activity

City Distance Mag. Time & Date
Minimum magnitude displayed is 2.5.

Coastal Water Temperatures

Place Temperature

Stations

Nearby Weather Stations

Station Location Temp. Windchill Dew Point Humidity Wind Precip. Elev Updated Type